Time;durP1;ratioP1;P1;durP2;ratioP2;P2;SDS_P1;SDS_P2;PMS_P1;PMS_P2;Temp;Humidity;BMP_temperature;BMP_pressure;BME280_temperature;BME280_humidity;BME280_pressure;Samples;Min_cycle;Max_cycle;Signal;HPM_P1;HPM_P2
2023/07/07 00:01:01;;;;;;;3.63;1.92;;;21.50;58.20;;;;;;4955504;29;20095;-76
2023/07/07 00:03:27;;;;;;;2.83;1.90;;;21.50;58.30;;;;;;4956506;29;20038;-77
2023/07/07 00:05:53;;;;;;;2.80;2.13;;;21.50;58.30;;;;;;4955819;29;20035;-76
2023/07/07 00:08:19;;;;;;;2.35;1.73;;;21.40;58.30;;;;;;4939705;28;20086;-76
2023/07/07 00:10:45;;;;;;;3.33;2.13;;;21.40;58.30;;;;;;4955675;29;20111;-75
2023/07/07 00:13:13;;;;;;;3.05;2.10;;;21.40;58.40;;;;;;4956668;29;20031;-76
2023/07/07 00:15:44;;;;;;;2.25;1.85;;;21.30;58.40;;;;;;4955788;29;20094;-76
2023/07/07 00:18:26;;;;;;;2.70;1.92;;;21.30;58.40;;;;;;4955775;29;20047;-78
2023/07/07 00:20:57;;;;;;;2.70;1.92;;;21.30;58.40;;;;;;4957046;29;20028;-76
2023/07/07 00:23:24;;;;;;;2.53;2.10;;;21.30;58.50;;;;;;4955373;29;20043;-76
2023/07/07 00:26:01;;;;;;;3.65;2.05;;;21.30;58.50;;;;;;4955459;29;20032;-76
2023/07/07 00:28:27;;;;;;;3.30;2.22;;;21.20;58.50;;;;;;4956669;28;20114;-77
2023/07/07 00:30:52;;;;;;;2.28;1.80;;;21.20;58.50;;;;;;4940117;28;20127;-76
2023/07/07 00:33:18;;;;;;;2.38;2.05;;;21.10;58.50;;;;;;4939276;28;20042;-75
2023/07/07 00:35:48;;;;;;;3.17;2.17;;;21.10;58.60;;;;;;4955260;29;20029;-76
2023/07/07 00:38:15;;;;;;;3.13;2.03;;;21.10;58.70;;;;;;4956427;29;20031;-76
2023/07/07 00:40:41;;;;;;;2.92;2.05;;;21.10;58.70;;;;;;4956187;29;20039;-75
2023/07/07 00:43:15;;;;;;;3.30;2.17;;;21.00;58.70;;;;;;4955860;28;20023;-75
2023/07/07 00:45:41;;;;;;;2.83;2.05;;;21.00;58.70;;;;;;4955995;28;20031;-75
2023/07/07 00:48:30;;;;;;;2.70;2.10;;;20.90;58.70;;;;;;4938604;29;20163;-75
2023/07/07 00:51:08;;;;;;;2.55;2.00;;;20.90;58.80;;;;;;4944306;29;20097;-76
2023/07/07 00:53:35;;;;;;;3.15;2.20;;;20.90;58.90;;;;;;4956211;28;20035;-75
2023/07/07 00:56:09;;;;;;;2.40;2.10;;;20.90;58.90;;;;;;4938657;29;20046;-76
2023/07/07 00:58:39;;;;;;;2.40;1.88;;;20.80;59.00;;;;;;4954701;28;20042;-75
2023/07/07 01:01:12;;;;;;;2.00;1.65;;;20.80;58.90;;;;;;4956032;28;20036;-75
2023/07/07 01:03:48;;;;;;;2.85;2.08;;;20.80;59.00;;;;;;4955764;29;20536;-74
2023/07/07 01:06:18;;;;;;;2.47;1.80;;;20.70;58.90;;;;;;4938886;29;20027;-75
2023/07/07 01:08:50;;;;;;;2.65;2.00;;;20.70;59.00;;;;;;4955751;28;20122;-76
2023/07/07 01:11:18;;;;;;;2.10;1.80;;;20.70;59.00;;;;;;4954387;29;20468;-74
2023/07/07 01:13:44;;;;;;;2.85;1.98;;;20.60;59.00;;;;;;4939317;28;20475;-75
2023/07/07 01:16:13;;;;;;;2.35;1.80;;;20.60;59.10;;;;;;4955892;28;20090;-75
2023/07/07 01:18:45;;;;;;;2.55;2.05;;;20.60;59.20;;;;;;4955837;28;20117;-75
2023/07/07 01:21:44;;;;;;;4.93;2.42;;;20.50;59.10;;;;;;4938515;29;20057;-75
2023/07/07 01:24:28;;;;;;;2.95;2.10;;;20.50;59.30;;;;;;4938740;29;20122;-75
2023/07/07 01:27:21;;;;;;;2.37;1.73;;;20.50;59.30;;;;;;4954507;29;20027;-77
2023/07/07 01:29:50;;;;;;;2.67;2.00;;;20.40;59.30;;;;;;4938157;29;20050;-75
2023/07/07 01:32:26;;;;;;;2.92;1.92;;;20.40;59.20;;;;;;4954820;29;20086;-74
2023/07/07 01:34:57;;;;;;;3.22;2.15;;;20.40;59.30;;;;;;4954348;28;20113;-75
2023/07/07 01:37:23;;;;;;;2.97;2.00;;;20.30;59.40;;;;;;4954232;29;20031;-75
2023/07/07 01:39:51;;;;;;;3.13;2.17;;;20.30;59.40;;;;;;4954383;29;20050;-75
2023/07/07 01:42:45;;;;;;;3.42;2.03;;;20.30;59.50;;;;;;4954482;29;20062;-75
2023/07/07 01:45:34;;;;;;;2.53;2.05;;;20.30;59.60;;;;;;4956502;29;20063;-75
2023/07/07 01:48:18;;;;;;;3.60;2.40;;;20.20;59.60;;;;;;4957185;29;20078;-77
2023/07/07 01:50:45;;;;;;;2.97;1.98;;;20.20;59.60;;;;;;4955262;29;20077;-74
2023/07/07 01:53:17;;;;;;;2.88;2.05;;;20.20;59.60;;;;;;4938545;29;20031;-75
2023/07/07 01:55:51;;;;;;;2.85;1.90;;;20.10;59.60;;;;;;4937961;29;20031;-75
2023/07/07 01:58:19;;;;;;;2.45;2.05;;;20.10;59.70;;;;;;4954040;29;20031;-77
2023/07/07 02:00:49;;;;;;;3.22;2.20;;;20.10;59.70;;;;;;4954066;29;20062;-77
2023/07/07 02:03:17;;;;;;;4.15;2.72;;;20.10;59.80;;;;;;4953930;29;20042;-76
2023/07/07 02:05:43;;;;;;;3.47;2.45;;;20.10;59.90;;;;;;4955249;28;20039;-78
2023/07/07 02:08:09;;;;;;;2.97;2.25;;;20.00;59.80;;;;;;4953884;29;20040;-76
2023/07/07 02:10:36;;;;;;;3.20;2.40;;;20.00;59.90;;;;;;4941226;29;20035;-76
2023/07/07 02:13:02;;;;;;;3.28;2.47;;;19.90;59.90;;;;;;4957496;29;20472;-76
2023/07/07 02:15:27;;;;;;;2.97;2.33;;;19.90;60.00;;;;;;4959290;29;20050;-76
2023/07/07 02:17:54;;;;;;;2.53;2.05;;;19.90;60.00;;;;;;4957840;29;20031;-76
2023/07/07 02:20:20;;;;;;;3.72;2.33;;;19.90;60.00;;;;;;4942096;29;20054;-75
2023/07/07 02:22:47;;;;;;;3.78;2.50;;;19.80;60.00;;;;;;4958738;28;20036;-78
2023/07/07 02:25:13;;;;;;;3.85;2.50;;;19.80;60.00;;;;;;4957571;28;20086;-76
2023/07/07 02:27:39;;;;;;;3.13;2.20;;;19.80;60.10;;;;;;4941489;29;20130;-75
2023/07/07 02:30:06;;;;;;;2.95;2.28;;;19.80;60.20;;;;;;4957504;29;20086;-75
2023/07/07 02:32:31;;;;;;;2.78;2.35;;;19.70;60.10;;;;;;4957235;28;20035;-75
2023/07/07 02:35:01;;;;;;;3.55;2.40;;;19.70;60.20;;;;;;4958113;29;20023;-74
2023/07/07 02:37:27;;;;;;;3.33;2.45;;;19.70;60.30;;;;;;4958749;28;20056;-74
2023/07/07 02:39:54;;;;;;;3.78;2.42;;;19.60;60.20;;;;;;4957301;29;20126;-75
2023/07/07 02:42:21;;;;;;;3.22;2.42;;;19.60;60.20;;;;;;4941437;29;20050;-75
2023/07/07 02:44:47;;;;;;;3.72;2.58;;;19.60;60.30;;;;;;4958279;29;20031;-74
2023/07/07 02:47:13;;;;;;;3.40;2.35;;;19.50;60.30;;;;;;4957272;29;20055;-75
2023/07/07 02:49:39;;;;;;;3.15;2.45;;;19.50;60.30;;;;;;4941317;29;20404;-74
2023/07/07 02:52:06;;;;;;;2.85;2.20;;;19.50;60.30;;;;;;4941273;29;20034;-76
2023/07/07 02:54:33;;;;;;;3.67;2.13;;;19.50;60.40;;;;;;4957126;29;20039;-74
2023/07/07 02:56:59;;;;;;;3.25;2.40;;;19.50;60.40;;;;;;4956845;29;20039;-75
2023/07/07 02:59:24;;;;;;;2.85;2.20;;;19.40;60.40;;;;;;4958693;29;20039;-76
2023/07/07 03:01:50;;;;;;;2.95;2.10;;;19.40;60.40;;;;;;4941888;29;20036;-74
2023/07/07 03:04:16;;;;;;;3.72;2.35;;;19.40;60.50;;;;;;4956947;29;20062;-75
2023/07/07 03:06:42;;;;;;;3.42;2.35;;;19.30;60.50;;;;;;4957005;29;20069;-75
2023/07/07 03:09:09;;;;;;;3.35;2.25;;;19.30;60.60;;;;;;4940451;29;20054;-75
2023/07/07 03:11:36;;;;;;;3.33;2.20;;;19.30;60.60;;;;;;4941376;29;20035;-75
2023/07/07 03:14:05;;;;;;;4.60;2.53;;;19.30;60.70;;;;;;4956968;29;20114;-75
2023/07/07 03:16:32;;;;;;;2.78;2.17;;;19.30;60.70;;;;;;4956676;29;20039;-75
2023/07/07 03:19:08;;;;;;;2.47;1.92;;;19.20;60.70;;;;;;4956935;28;20062;-76
2023/07/07 03:21:40;;;;;;;3.80;2.30;;;19.20;60.80;;;;;;4956018;28;20070;-74
2023/07/07 03:24:22;;;;;;;2.15;1.95;;;19.10;60.70;;;;;;4943135;29;20070;-75
2023/07/07 03:26:48;;;;;;;3.40;2.17;;;19.10;60.70;;;;;;4940780;29;20059;-74
2023/07/07 03:29:18;;;;;;;2.80;2.15;;;19.10;60.80;;;;;;4940864;28;20047;-73
2023/07/07 03:31:44;;;;;;;2.83;2.38;;;19.10;60.80;;;;;;4940502;29;20035;-74
2023/07/07 03:34:12;;;;;;;2.70;2.13;;;19.00;60.80;;;;;;4940954;29;20122;-74
2023/07/07 03:36:42;;;;;;;2.78;2.22;;;19.00;60.90;;;;;;4956748;29;20052;-75
2023/07/07 03:39:08;;;;;;;3.13;2.13;;;18.90;60.90;;;;;;4940432;29;20074;-74
2023/07/07 03:41:34;;;;;;;2.97;2.28;;;18.90;61.00;;;;;;4940259;29;20035;-76
2023/07/07 03:44:03;;;;;;;4.55;2.40;;;18.90;61.00;;;;;;4940642;29;20074;-74
2023/07/07 03:46:32;;;;;;;3.90;2.58;;;18.90;61.10;;;;;;4955806;28;20051;-75
2023/07/07 03:48:59;;;;;;;3.25;2.40;;;18.80;61.10;;;;;;4957497;28;20062;-74
2023/07/07 03:51:34;;;;;;;2.72;2.22;;;18.80;61.10;;;;;;4956359;29;20046;-75
2023/07/07 03:54:01;;;;;;;2.78;2.17;;;18.80;61.10;;;;;;4940567;29;20039;-75
2023/07/07 03:56:26;;;;;;;2.63;2.15;;;18.80;61.20;;;;;;4957276;28;20058;-76
2023/07/07 03:58:53;;;;;;;3.97;2.60;;;18.70;61.30;;;;;;4955981;29;20047;-74
2023/07/07 04:01:19;;;;;;;2.78;2.03;;;18.70;61.30;;;;;;4940632;29;20417;-76
2023/07/07 04:03:46;;;;;;;4.00;2.40;;;18.70;61.30;;;;;;4940628;28;20035;-75
2023/07/07 04:06:14;;;;;;;2.97;2.38;;;18.70;61.40;;;;;;4939894;29;20040;-75
2023/07/07 04:08:40;;;;;;;3.53;2.60;;;18.60;61.40;;;;;;4940486;29;20047;-74
2023/07/07 04:11:15;;;;;;;4.47;2.70;;;18.60;61.40;;;;;;4955882;29;20042;-75
2023/07/07 04:13:43;;;;;;;4.00;2.70;;;18.60;61.50;;;;;;4955629;29;20027;-74
2023/07/07 04:16:13;;;;;;;3.33;2.28;;;18.60;61.50;;;;;;4955746;28;20043;-74
2023/07/07 04:18:41;;;;;;;4.35;2.28;;;18.50;61.50;;;;;;4955545;29;20027;-75
2023/07/07 04:21:09;;;;;;;3.33;2.38;;;18.60;61.50;;;;;;4939315;29;20078;-74
2023/07/07 04:23:37;;;;;;;3.33;2.30;;;18.50;61.40;;;;;;4955516;29;20413;-75
2023/07/07 04:26:03;;;;;;;3.30;2.35;;;18.50;61.50;;;;;;4939475;29;20054;-75
2023/07/07 04:28:32;;;;;;;2.78;2.22;;;18.50;61.60;;;;;;4956512;28;20130;-75
2023/07/07 04:30:58;;;;;;;3.63;2.67;;;18.50;61.70;;;;;;4939816;29;20475;-75
2023/07/07 04:33:27;;;;;;;3.33;2.33;;;18.50;61.70;;;;;;4955698;28;20039;-75
2023/07/07 04:36:00;;;;;;;3.35;2.35;;;18.50;61.70;;;;;;4956216;28;20035;-76
2023/07/07 04:38:32;;;;;;;3.08;2.30;;;18.50;61.90;;;;;;4955563;29;20042;-75
2023/07/07 04:41:12;;;;;;;3.10;2.38;;;18.40;61.70;;;;;;4956240;28;20488;-75
2023/07/07 04:43:52;;;;;;;3.03;2.33;;;18.40;61.90;;;;;;4939245;29;20035;-75
2023/07/07 04:46:22;;;;;;;3.13;2.20;;;18.40;61.90;;;;;;4956803;28;20464;-75
2023/07/07 04:48:48;;;;;;;2.55;2.17;;;18.40;61.90;;;;;;4955518;29;20377;-73
2023/07/07 04:51:14;;;;;;;2.75;2.20;;;18.40;61.90;;;;;;4956031;28;20037;-73
2023/07/07 04:53:41;;;;;;;3.10;2.42;;;18.40;61.90;;;;;;4955391;29;20035;-73
2023/07/07 04:56:18;;;;;;;3.92;2.20;;;18.40;62.00;;;;;;4954355;29;20117;-72
2023/07/07 04:58:46;;;;;;;2.75;2.30;;;18.40;62.00;;;;;;4954871;29;20093;-73
2023/07/07 05:01:15;;;;;;;4.25;2.60;;;18.40;62.00;;;;;;4954341;29;20043;-73
2023/07/07 05:03:42;;;;;;;2.80;2.13;;;18.40;62.00;;;;;;4954847;29;20031;-73
2023/07/07 05:06:09;;;;;;;3.13;2.20;;;18.40;62.10;;;;;;4955306;29;20039;-73
2023/07/07 05:08:38;;;;;;;2.35;2.05;;;18.40;62.10;;;;;;4954144;28;20045;-73
2023/07/07 05:11:04;;;;;;;3.85;2.42;;;18.40;62.10;;;;;;4954428;29;20502;-73
2023/07/07 05:13:31;;;;;;;2.88;2.20;;;18.40;62.10;;;;;;4956023;28;20035;-74
2023/07/07 05:16:06;;;;;;;3.38;2.35;;;18.40;62.10;;;;;;4938603;29;20055;-73
2023/07/07 05:18:32;;;;;;;3.90;2.50;;;18.40;62.20;;;;;;4954288;29;20167;-72
2023/07/07 05:20:58;;;;;;;2.83;2.30;;;18.40;62.10;;;;;;4955615;28;20090;-75
2023/07/07 05:23:24;;;;;;;3.42;2.40;;;18.40;62.10;;;;;;4955409;28;20091;-75
2023/07/07 05:25:51;;;;;;;3.22;2.40;;;18.40;62.20;;;;;;4954561;29;20437;-73
2023/07/07 05:28:16;;;;;;;2.88;2.35;;;18.40;62.20;;;;;;4953909;29;20039;-74
2023/07/07 05:30:43;;;;;;;3.40;2.40;;;18.40;62.20;;;;;;4954229;29;20508;-76
2023/07/07 05:33:09;;;;;;;3.08;2.38;;;18.30;62.20;;;;;;4954119;28;20480;-75
2023/07/07 05:35:35;;;;;;;3.00;2.17;;;18.40;62.90;;;;;;4954437;29;20032;-73
2023/07/07 05:38:01;;;;;;;3.45;2.28;;;18.40;62.20;;;;;;4938520;29;20504;-74
2023/07/07 05:40:29;;;;;;;3.38;2.50;;;18.40;62.30;;;;;;4955957;28;20059;-73
2023/07/07 05:42:55;;;;;;;3.17;2.22;;;18.40;62.30;;;;;;4954062;29;20028;-75
2023/07/07 05:45:24;;;;;;;3.00;2.22;;;18.40;62.30;;;;;;4937928;29;20031;-73
2023/07/07 05:47:50;;;;;;;2.17;1.98;;;18.40;62.30;;;;;;4955279;28;20047;-74
2023/07/07 05:50:15;;;;;;;3.08;2.33;;;18.40;62.30;;;;;;4954423;29;20511;-74
2023/07/07 05:52:41;;;;;;;3.05;2.17;;;18.40;62.30;;;;;;4938102;29;20487;-75
2023/07/07 05:55:21;;;;;;;3.03;2.35;;;18.40;62.30;;;;;;4938943;28;20031;-74
2023/07/07 05:57:47;;;;;;;2.42;2.10;;;18.40;62.30;;;;;;4955098;29;20027;-74
2023/07/07 06:00:13;;;;;;;3.55;2.30;;;18.40;62.30;;;;;;4955073;28;20127;-75
2023/07/07 06:02:39;;;;;;;2.65;2.10;;;18.40;62.30;;;;;;4954854;29;20035;-75
2023/07/07 06:05:05;;;;;;;2.85;2.13;;;18.40;62.30;;;;;;4938016;29;20043;-74
2023/07/07 06:07:31;;;;;;;2.60;2.20;;;18.40;62.30;;;;;;4938261;29;20038;-75
2023/07/07 06:09:57;;;;;;;3.45;2.10;;;18.40;62.30;;;;;;4953920;29;20103;-74
2023/07/07 06:12:23;;;;;;;2.53;2.10;;;18.50;62.40;;;;;;4954663;29;20039;-75
2023/07/07 06:14:49;;;;;;;3.10;2.13;;;18.50;62.40;;;;;;4956683;29;20042;-75
2023/07/07 06:17:15;;;;;;;2.72;2.10;;;18.50;62.40;;;;;;4957841;29;20040;-74
2023/07/07 06:19:40;;;;;;;2.72;1.85;;;18.50;62.40;;;;;;4957319;28;20377;-73
2023/07/07 06:22:07;;;;;;;2.10;1.80;;;18.50;62.40;;;;;;4938394;29;20492;-73
2023/07/07 06:24:32;;;;;;;3.65;2.40;;;18.50;62.40;;;;;;4954192;29;20118;-73
2023/07/07 06:26:58;;;;;;;3.40;2.20;;;18.50;62.40;;;;;;4937868;29;20115;-74
2023/07/07 06:29:24;;;;;;;3.20;2.17;;;18.60;62.50;;;;;;4953310;28;20075;-75
2023/07/07 06:31:50;;;;;;;3.05;1.90;;;18.60;62.40;;;;;;4954999;28;20082;-75
2023/07/07 06:34:16;;;;;;;2.47;1.90;;;18.50;62.40;;;;;;4953560;29;20095;-75
2023/07/07 06:36:42;;;;;;;3.08;2.10;;;18.60;62.40;;;;;;4937802;29;20027;-75
2023/07/07 06:39:08;;;;;;;2.45;2.08;;;18.60;62.40;;;;;;4954072;29;20039;-74
2023/07/07 06:41:33;;;;;;;2.83;2.20;;;18.60;62.40;;;;;;4937698;29;20532;-75
2023/07/07 06:43:59;;;;;;;2.78;2.20;;;18.60;62.50;;;;;;4938512;29;20469;-75
2023/07/07 06:46:26;;;;;;;3.20;2.08;;;18.70;62.50;;;;;;4937699;29;20106;-75
2023/07/07 06:48:52;;;;;;;2.55;1.92;;;18.70;62.50;;;;;;4937118;29;20063;-74
2023/07/07 06:51:18;;;;;;;3.15;2.05;;;18.70;62.50;;;;;;4937510;29;20040;-75
2023/07/07 06:53:44;;;;;;;3.05;2.13;;;18.70;62.60;;;;;;4953473;29;20369;-76
2023/07/07 06:56:10;;;;;;;3.22;2.05;;;18.70;62.60;;;;;;4938391;29;20038;-76
2023/07/07 06:58:36;;;;;;;2.53;2.10;;;18.70;62.60;;;;;;4941141;29;20043;-76
2023/07/07 07:01:02;;;;;;;2.53;1.92;;;18.70;62.60;;;;;;4958572;28;20047;-75
2023/07/07 07:03:28;;;;;;;2.47;1.85;;;18.80;62.60;;;;;;4956953;29;20046;-75
2023/07/07 07:05:54;;;;;;;3.03;2.10;;;18.80;62.60;;;;;;4957299;29;20087;-74
2023/07/07 07:08:20;;;;;;;3.88;2.25;;;18.90;62.60;;;;;;4957023;29;20044;-75
2023/07/07 07:10:46;;;;;;;2.75;2.00;;;18.80;62.50;;;;;;4957231;29;20037;-74
2023/07/07 07:13:12;;;;;;;3.33;2.53;;;18.90;62.50;;;;;;4941217;29;20090;-74
2023/07/07 07:15:37;;;;;;;3.25;2.25;;;18.90;62.50;;;;;;4957056;29;20042;-75
2023/07/07 07:18:03;;;;;;;2.80;1.95;;;18.90;62.50;;;;;;4957745;28;20053;-76
2023/07/07 07:20:29;;;;;;;2.22;1.85;;;18.90;62.50;;;;;;4957583;29;20046;-75
2023/07/07 07:22:55;;;;;;;2.75;2.10;;;19.00;62.50;;;;;;4957966;29;20134;-74
2023/07/07 07:25:21;;;;;;;3.25;2.35;;;19.00;62.50;;;;;;4940649;28;20035;-76
2023/07/07 07:27:46;;;;;;;3.30;2.10;;;19.10;62.50;;;;;;4957485;28;20032;-74
2023/07/07 07:30:14;;;;;;;3.78;2.33;;;19.10;62.50;;;;;;4958124;28;20054;-74
2023/07/07 07:32:43;;;;;;;3.10;2.03;;;19.10;62.40;;;;;;4940758;28;20035;-74
2023/07/07 07:35:10;;;;;;;4.00;2.10;;;19.20;62.40;;;;;;4958257;28;20035;-75
2023/07/07 07:37:36;;;;;;;3.00;2.03;;;19.20;62.30;;;;;;4940412;28;20036;-76
2023/07/07 07:40:03;;;;;;;2.90;1.95;;;19.30;62.30;;;;;;4941367;29;20039;-74
2023/07/07 07:42:31;;;;;;;3.97;2.20;;;19.30;62.10;;;;;;4956433;29;20166;-77
2023/07/07 07:44:57;;;;;;;3.10;2.00;;;19.40;62.10;;;;;;4957031;28;20044;-75
2023/07/07 07:47:23;;;;;;;3.03;1.70;;;19.40;61.90;;;;;;4957789;28;20047;-75
2023/07/07 07:49:49;;;;;;;3.20;1.85;;;19.50;61.90;;;;;;4957089;28;20043;-75
2023/07/07 07:52:15;;;;;;;3.45;2.15;;;19.60;61.90;;;;;;4957664;28;20548;-75
2023/07/07 07:54:42;;;;;;;3.60;2.03;;;19.70;61.80;;;;;;4940389;29;20031;-74
2023/07/07 07:57:09;;;;;;;4.10;1.98;;;19.70;61.70;;;;;;4940235;29;20086;-75
2023/07/07 07:59:35;;;;;;;3.30;2.00;;;19.80;61.60;;;;;;4956698;28;20444;-75
2023/07/07 08:02:01;;;;;;;3.30;2.00;;;19.90;61.50;;;;;;4957285;29;20035;-75
2023/07/07 08:04:26;;;;;;;4.43;2.13;;;20.00;61.40;;;;;;4956568;29;20410;-75
2023/07/07 08:06:54;;;;;;;2.85;1.92;;;20.10;61.40;;;;;;4956850;28;20512;-74
2023/07/07 08:09:20;;;;;;;3.03;1.90;;;20.10;61.20;;;;;;4955729;29;20066;-76
2023/07/07 08:11:45;;;;;;;3.72;2.10;;;20.20;61.10;;;;;;4955616;29;20027;-75
2023/07/07 08:14:17;;;;;;;3.45;2.15;;;20.30;61.10;;;;;;4940458;28;20082;-75
2023/07/07 08:16:45;;;;;;;3.83;2.10;;;20.40;61.00;;;;;;4939666;29;20035;-75
2023/07/07 08:19:13;;;;;;;3.15;2.05;;;20.60;60.90;;;;;;4955412;29;20046;-76
2023/07/07 08:21:39;;;;;;;2.72;1.90;;;20.60;60.80;;;;;;4955371;29;20472;-75
2023/07/07 08:24:06;;;;;;;3.58;2.10;;;20.70;60.70;;;;;;4956251;29;20038;-75
2023/07/07 08:26:32;;;;;;;2.72;1.90;;;20.80;60.50;;;;;;4955814;29;20471;-74
2023/07/07 08:28:58;;;;;;;2.53;1.73;;;20.90;60.40;;;;;;4939598;29;20043;-75
2023/07/07 08:31:24;;;;;;;3.05;1.73;;;21.00;60.40;;;;;;4955411;28;20023;-77
2023/07/07 08:33:50;;;;;;;2.75;1.70;;;21.10;60.30;;;;;;4939107;29;20034;-75
2023/07/07 08:36:16;;;;;;;3.75;1.90;;;21.20;60.20;;;;;;4956864;28;20038;-74
2023/07/07 08:38:42;;;;;;;2.42;1.80;;;21.30;60.10;;;;;;4939353;29;20035;-75
2023/07/07 08:41:08;;;;;;;2.90;1.75;;;21.40;60.10;;;;;;4940205;29;20063;-75
2023/07/07 08:43:35;;;;;;;1.90;1.50;;;21.50;60.00;;;;;;4939046;29;20043;-75
2023/07/07 08:46:17;;;;;;;3.22;1.90;;;21.60;60.00;;;;;;4939209;29;20054;-75
2023/07/07 08:49:35;;;;;;;3.30;1.77;;;21.70;60.00;;;;;;4955117;28;20138;-74
2023/07/07 08:52:10;;;;;;;2.42;1.48;;;21.80;59.90;;;;;;4944498;28;20047;-74
2023/07/07 08:54:43;;;;;;;;;;;22.00;59.80;;;;;;4955430;29;20488;-75
2023/07/07 08:57:12;;;;;;;1.58;1.38;;;22.00;59.40;;;;;;4955613;29;19917;-74
2023/07/07 09:00:01;;;;;;;1.98;1.38;;;22.20;59.40;;;;;;4954712;29;20035;-75
2023/07/07 09:03:10;;;;;;;2.05;1.40;;;22.30;59.70;;;;;;4955171;29;20085;-75
2023/07/07 09:05:54;;;;;;;2.40;1.38;;;22.40;59.60;;;;;;4954827;29;20427;-76
2023/07/07 09:08:46;;;;;;;2.03;1.48;;;22.60;59.60;;;;;;4954660;29;20035;-75
2023/07/07 09:11:42;;;;;;;1.83;1.45;;;22.60;59.50;;;;;;4935560;29;20118;-75
2023/07/07 09:14:11;;;;;;;2.25;1.38;;;22.80;59.60;;;;;;4956206;28;20042;-77
2023/07/07 09:16:38;;;;;;;2.38;1.60;;;22.90;59.40;;;;;;4938885;29;20035;-77
2023/07/07 09:19:18;;;;;;;1.77;1.40;;;23.00;59.40;;;;;;4955459;28;20460;-76
2023/07/07 09:21:53;;;;;;;1.80;1.40;;;23.10;59.60;;;;;;4954652;29;20531;-76
2023/07/07 09:24:34;;;;;;;2.25;1.50;;;23.30;59.50;;;;;;4954424;29;20035;-76
2023/07/07 09:27:13;;;;;;;1.50;1.30;;;23.30;59.50;;;;;;4939066;29;20115;-76
2023/07/07 09:29:39;;;;;;;2.60;1.60;;;23.50;59.50;;;;;;4954739;29;20094;-76
2023/07/07 09:32:08;;;;;;;2.45;1.52;;;23.60;59.50;;;;;;4938200;29;20464;-75
2023/07/07 09:34:34;;;;;;;2.58;1.60;;;23.70;59.50;;;;;;4955624;28;20035;-76
2023/07/07 09:37:25;;;;;;;1.92;1.45;;;23.80;59.40;;;;;;4954180;29;20039;-79
2023/07/07 09:40:09;;;;;;;1.85;1.45;;;23.90;59.50;;;;;;4954315;28;20480;-78
2023/07/07 09:43:03;;;;;;;2.95;1.58;;;24.10;59.60;;;;;;4955229;28;20501;-75
2023/07/07 09:45:29;;;;;;;1.60;1.25;;;24.20;59.40;;;;;;4954049;29;20032;-75
2023/07/07 09:48:11;;;;;;;1.73;1.35;;;24.30;59.10;;;;;;4953898;29;20059;-76
2023/07/07 09:50:50;;;;;;;1.92;1.50;;;24.40;59.30;;;;;;4954633;29;20050;-77
2023/07/07 09:53:37;;;;;;;1.30;1.20;;;24.50;59.30;;;;;;4954269;29;20039;-77
2023/07/07 09:56:04;;;;;;;2.90;1.70;;;24.60;59.40;;;;;;4954346;28;20170;-77
2023/07/07 09:58:52;;;;;;;2.35;1.52;;;24.80;59.30;;;;;;4955119;28;20031;-76
2023/07/07 10:01:18;;;;;;;1.95;1.45;;;24.90;59.50;;;;;;4955187;28;20472;-79
2023/07/07 10:03:47;;;;;;;1.40;1.20;;;25.00;59.20;;;;;;4938037;29;20032;-76
2023/07/07 10:06:47;;;;;;;1.83;1.40;;;25.10;59.00;;;;;;4955406;29;20093;-75
2023/07/07 10:09:15;;;;;;;1.88;1.50;;;25.20;59.10;;;;;;4954187;29;20042;-77
2023/07/07 10:11:42;;;;;;;1.77;1.42;;;25.30;58.90;;;;;;4953970;28;20109;-81
2023/07/07 10:14:12;;;;;;;2.10;1.35;;;25.40;58.80;;;;;;4955232;28;20038;-77
2023/07/07 10:16:46;;;;;;;2.35;1.23;;;25.60;59.00;;;;;;4953896;29;20023;-76
2023/07/07 10:19:13;;;;;;;1.70;1.30;;;25.70;59.00;;;;;;4953650;29;20404;-75
2023/07/07 10:21:39;;;;;;;1.20;1.10;;;25.80;59.00;;;;;;4954930;29;20024;-76
2023/07/07 10:24:05;;;;;;;2.10;1.45;;;25.90;58.90;;;;;;4955522;28;20039;-77
2023/07/07 10:26:31;;;;;;;1.73;1.30;;;26.00;59.00;;;;;;4955084;28;20119;-77
2023/07/07 10:29:02;;;;;;;1.90;1.30;;;26.10;58.80;;;;;;4954048;29;20063;-74
2023/07/07 10:31:28;;;;;;;1.88;1.38;;;26.20;58.70;;;;;;4957730;28;20031;-77
2023/07/07 10:34:02;;;;;;;2.30;1.58;;;26.30;58.60;;;;;;4960164;28;20089;-80
2023/07/07 10:36:32;;;;;;;1.50;1.23;;;26.40;58.40;;;;;;4959200;28;20460;-76
2023/07/07 10:38:59;;;;;;;1.40;1.30;;;26.50;58.40;;;;;;4961814;28;20050;-77
2023/07/07 10:41:26;;;;;;;1.70;1.25;;;26.60;59.00;;;;;;4962969;28;20049;-78
2023/07/07 10:43:53;;;;;;;1.35;1.15;;;26.70;58.30;;;;;;4967119;28;20023;-75
2023/07/07 10:46:19;;;;;;;2.00;1.33;;;26.80;58.30;;;;;;4964325;29;20031;-74
2023/07/07 10:48:46;;;;;;;1.73;1.23;;;26.90;58.30;;;;;;4944866;28;20379;-77
2023/07/07 10:51:17;;;;;;;1.70;1.40;;;26.90;58.20;;;;;;4958444;29;20182;-75
2023/07/07 10:53:43;;;;;;;1.52;1.35;;;27.00;58.20;;;;;;4957671;29;20035;-75
2023/07/07 10:56:23;;;;;;;1.38;1.27;;;27.20;58.10;;;;;;4942030;29;20035;-75
2023/07/07 10:59:19;;;;;;;2.10;1.40;;;27.30;58.10;;;;;;4941948;29;20413;-76
2023/07/07 11:02:02;;;;;;;1.40;1.27;;;27.30;58.00;;;;;;4957916;29;20035;-75
2023/07/07 11:05:09;;;;;;;2.00;1.30;;;27.40;58.00;;;;;;4957260;29;20065;-75
2023/07/07 11:07:45;;;;;;;1.40;1.30;;;27.50;58.10;;;;;;4902550;29;20090;-76
2023/07/07 11:10:33;;;;;;;1.77;1.20;;;27.60;58.00;;;;;;4952709;28;20058;-76
2023/07/07 11:13:26;;;;;;;1.27;1.00;;;27.60;58.10;;;;;;4958260;28;20031;-75
2023/07/07 11:16:18;;;;;;;1.90;1.30;;;27.70;58.00;;;;;;4956741;29;20074;-75
2023/07/07 11:18:56;;;;;;;1.45;1.30;;;27.80;58.20;;;;;;4956495;29;20039;-75
2023/07/07 11:21:34;;;;;;;1.90;1.15;;;27.80;58.20;;;;;;4957741;29;20073;-76
2023/07/07 11:24:10;;;;;;;1.25;1.08;;;27.80;58.30;;;;;;4957741;29;20114;-76
2023/07/07 11:27:14;;;;;;;1.20;1.10;;;27.90;58.30;;;;;;4956778;29;20027;-76
2023/07/07 11:30:08;;;;;;;2.47;1.52;;;27.90;58.30;;;;;;4957474;28;20114;-76
2023/07/07 11:32:45;;;;;;;1.38;1.20;;;28.00;58.60;;;;;;4940505;29;20047;-75
2023/07/07 11:35:41;;;;;;;1.30;1.17;;;28.00;58.50;;;;;;4940228;29;20030;-75
2023/07/07 11:38:23;;;;;;;1.80;1.20;;;28.00;58.40;;;;;;4940386;28;20038;-76
2023/07/07 11:40:57;;;;;;;2.40;1.38;;;28.10;58.60;;;;;;4956657;28;20380;-76
2023/07/07 11:43:38;;;;;;;1.80;1.33;;;28.10;58.60;;;;;;4957775;28;20047;-76
2023/07/07 11:46:34;;;;;;;2.53;1.50;;;28.10;58.70;;;;;;4956643;29;20028;-76
2023/07/07 11:49:09;;;;;;;1.58;1.40;;;28.10;58.90;;;;;;4957668;28;20054;-76
2023/07/07 11:51:44;;;;;;;1.60;1.23;;;28.20;59.00;;;;;;4957060;29;20097;-76
2023/07/07 11:54:42;;;;;;;1.58;1.30;;;28.10;58.80;;;;;;4955869;29;20027;-75
2023/07/07 11:57:39;;;;;;;1.27;1.17;;;28.20;59.10;;;;;;4957436;29;20027;-75
2023/07/07 12:00:08;;;;;;;2.05;1.40;;;28.20;59.00;;;;;;4956119;29;20035;-75
2023/07/07 12:02:51;;;;;;;2.00;1.33;;;28.20;59.00;;;;;;4955944;29;20112;-75
2023/07/07 12:05:37;;;;;;;1.90;1.50;;;28.20;59.10;;;;;;4957709;28;20031;-75
2023/07/07 12:08:16;;;;;;;1.92;1.45;;;28.20;59.10;;;;;;4955694;29;20531;-76
2023/07/07 12:10:58;;;;;;;1.85;1.30;;;28.20;59.20;;;;;;4957104;28;20035;-75
2023/07/07 12:13:30;;;;;;;1.60;1.40;;;28.20;59.00;;;;;;4956897;29;20042;-76
2023/07/07 12:16:09;;;;;;;1.73;1.45;;;28.30;59.00;;;;;;4955864;29;20074;-77
2023/07/07 12:18:38;;;;;;;1.77;1.30;;;28.30;58.90;;;;;;4957598;28;20094;-76
2023/07/07 12:21:23;;;;;;;1.88;1.20;;;28.30;58.90;;;;;;4956615;28;20034;-76
2023/07/07 12:23:59;;;;;;;1.50;1.30;;;28.30;58.80;;;;;;4956706;28;20059;-75
2023/07/07 12:26:35;;;;;;;1.80;1.35;;;28.30;58.90;;;;;;4955505;29;20090;-76
2023/07/07 12:29:03;;;;;;;1.50;1.40;;;28.30;58.90;;;;;;4939495;29;20126;-76
2023/07/07 12:31:29;;;;;;;1.90;1.38;;;28.30;58.80;;;;;;4939395;29;20045;-75
2023/07/07 12:33:55;;;;;;;2.15;1.50;;;28.30;58.70;;;;;;4955650;29;20035;-76
2023/07/07 12:36:29;;;;;;;2.15;1.60;;;28.30;58.50;;;;;;4939512;29;20428;-76
2023/07/07 12:38:57;;;;;;;1.70;1.60;;;28.40;58.50;;;;;;4956330;29;20090;-76
2023/07/07 12:41:26;;;;;;;1.95;1.42;;;28.30;58.40;;;;;;4955124;29;20038;-76
2023/07/07 12:44:04;;;;;;;1.50;1.30;;;28.40;58.40;;;;;;4956429;28;20063;-75
2023/07/07 12:46:33;;;;;;;2.22;1.55;;;28.40;58.30;;;;;;4955245;29;20030;-75
2023/07/07 12:49:18;;;;;;;1.70;1.30;;;28.30;58.20;;;;;;4939025;29;20571;-76
2023/07/07 12:51:45;;;;;;;2.15;1.33;;;28.40;58.30;;;;;;4955281;28;20042;-76
2023/07/07 12:54:32;;;;;;;1.55;1.33;;;28.40;58.10;;;;;;4954080;28;20483;-76
2023/07/07 12:57:03;;;;;;;1.73;1.40;;;28.30;58.00;;;;;;4938775;29;20399;-76
2023/07/07 12:59:37;;;;;;;2.10;1.40;;;28.40;57.90;;;;;;4938929;28;20039;-76
2023/07/07 13:02:35;;;;;;;;;;;28.40;57.90;;;;;;4954715;29;20133;-76
2023/07/07 13:05:20;;;;;;;1.75;1.27;;;28.40;58.00;;;;;;4922775;29;19957;-76
2023/07/07 13:08:03;;;;;;;1.52;1.33;;;28.40;57.80;;;;;;4954601;28;20023;-76
2023/07/07 13:10:45;;;;;;;1.42;1.20;;;28.40;57.70;;;;;;4954460;29;20040;-75